sensor_id;sensor_type;location;lat;lon;timestamp;P1;durP1;ratioP1;P2;durP2;ratioP2
47760;SDS011;33524;55.434;38.520;2023-07-16T00:01:05;25.27;;;19.30;;
47760;SDS011;33524;55.434;38.520;2023-07-16T00:03:33;24.33;;;17.60;;
47760;SDS011;33524;55.434;38.520;2023-07-16T00:06:01;23.00;;;18.12;;
47760;SDS011;33524;55.434;38.520;2023-07-16T00:08:33;27.92;;;19.10;;
47760;SDS011;33524;55.434;38.520;2023-07-16T00:11:02;25.33;;;19.62;;
47760;SDS011;33524;55.434;38.520;2023-07-16T00:13:34;26.52;;;20.30;;
47760;SDS011;33524;55.434;38.520;2023-07-16T00:16:05;23.67;;;18.40;;
47760;SDS011;33524;55.434;38.520;2023-07-16T00:18:33;26.15;;;18.95;;
47760;SDS011;33524;55.434;38.520;2023-07-16T00:21:04;24.33;;;18.00;;
47760;SDS011;33524;55.434;38.520;2023-07-16T00:23:35;29.10;;;19.42;;
47760;SDS011;33524;55.434;38.520;2023-07-16T00:26:04;21.42;;;17.48;;
47760;SDS011;33524;55.434;38.520;2023-07-16T00:28:32;25.17;;;18.87;;
47760;SDS011;33524;55.434;38.520;2023-07-16T00:31:01;18.87;;;15.07;;
47760;SDS011;33524;55.434;38.520;2023-07-16T00:33:32;24.15;;;17.35;;
47760;SDS011;33524;55.434;38.520;2023-07-16T00:36:03;19.60;;;16.00;;
47760;SDS011;33524;55.434;38.520;2023-07-16T00:38:32;26.45;;;17.73;;
47760;SDS011;33524;55.434;38.520;2023-07-16T00:41:00;24.40;;;17.40;;
47760;SDS011;33524;55.434;38.520;2023-07-16T00:43:28;22.73;;;18.45;;
47760;SDS011;33524;55.434;38.520;2023-07-16T00:46:00;22.62;;;17.45;;
47760;SDS011;33524;55.434;38.520;2023-07-16T00:48:28;23.20;;;17.40;;
47760;SDS011;33524;55.434;38.520;2023-07-16T00:50:57;23.42;;;17.25;;
47760;SDS011;33524;55.434;38.520;2023-07-16T00:53:28;21.33;;;13.98;;
47760;SDS011;33524;55.434;38.520;2023-07-16T00:55:56;23.25;;;17.95;;
47760;SDS011;33524;55.434;38.520;2023-07-16T00:58:24;21.67;;;17.00;;
47760;SDS011;33524;55.434;38.520;2023-07-16T01:00:55;21.70;;;16.02;;
47760;SDS011;33524;55.434;38.520;2023-07-16T01:03:23;20.33;;;14.63;;
47760;SDS011;33524;55.434;38.520;2023-07-16T01:06:00;18.40;;;13.55;;
47760;SDS011;33524;55.434;38.520;2023-07-16T01:08:46;24.42;;;16.58;;
47760;SDS011;33524;55.434;38.520;2023-07-16T01:11:35;21.02;;;15.65;;
47760;SDS011;33524;55.434;38.520;2023-07-16T01:14:05;23.20;;;16.20;;
47760;SDS011;33524;55.434;38.520;2023-07-16T01:16:36;23.45;;;15.30;;
47760;SDS011;33524;55.434;38.520;2023-07-16T01:19:04;22.37;;;15.00;;
47760;SDS011;33524;55.434;38.520;2023-07-16T01:21:45;21.40;;;15.35;;
47760;SDS011;33524;55.434;38.520;2023-07-16T01:30:10;20.88;;;14.35;;
47760;SDS011;33524;55.434;38.520;2023-07-16T01:32:43;20.17;;;14.43;;
47760;SDS011;33524;55.434;38.520;2023-07-16T01:35:13;21.62;;;14.38;;
47760;SDS011;33524;55.434;38.520;2023-07-16T01:37:42;26.30;;;17.60;;
47760;SDS011;33524;55.434;38.520;2023-07-16T01:40:14;20.30;;;14.32;;
47760;SDS011;33524;55.434;38.520;2023-07-16T01:42:42;24.10;;;17.15;;
47760;SDS011;33524;55.434;38.520;2023-07-16T01:45:10;27.42;;;17.10;;
47760;SDS011;33524;55.434;38.520;2023-07-16T01:50:10;29.67;;;18.05;;
47760;SDS011;33524;55.434;38.520;2023-07-16T01:52:38;26.52;;;18.00;;
47760;SDS011;33524;55.434;38.520;2023-07-16T01:55:09;26.85;;;19.30;;
47760;SDS011;33524;55.434;38.520;2023-07-16T01:57:38;26.73;;;15.95;;
47760;SDS011;33524;55.434;38.520;2023-07-16T02:00:09;25.52;;;18.58;;
47760;SDS011;33524;55.434;38.520;2023-07-16T02:02:48;23.62;;;15.85;;
47760;SDS011;33524;55.434;38.520;2023-07-16T02:05:17;26.55;;;16.73;;
47760;SDS011;33524;55.434;38.520;2023-07-16T02:07:46;22.27;;;15.10;;
47760;SDS011;33524;55.434;38.520;2023-07-16T02:10:14;27.77;;;16.23;;
47760;SDS011;33524;55.434;38.520;2023-07-16T02:12:44;20.10;;;14.65;;
47760;SDS011;33524;55.434;38.520;2023-07-16T02:15:13;22.08;;;15.85;;
47760;SDS011;33524;55.434;38.520;2023-07-16T02:17:42;22.10;;;16.17;;
47760;SDS011;33524;55.434;38.520;2023-07-16T02:20:11;22.90;;;14.73;;
47760;SDS011;33524;55.434;38.520;2023-07-16T02:22:39;20.30;;;15.43;;
47760;SDS011;33524;55.434;38.520;2023-07-16T02:25:08;25.25;;;15.57;;
47760;SDS011;33524;55.434;38.520;2023-07-16T02:27:36;20.33;;;14.90;;
47760;SDS011;33524;55.434;38.520;2023-07-16T02:30:04;19.92;;;14.38;;
47760;SDS011;33524;55.434;38.520;2023-07-16T02:32:34;18.58;;;14.25;;
47760;SDS011;33524;55.434;38.520;2023-07-16T02:35:02;20.98;;;15.25;;
47760;SDS011;33524;55.434;38.520;2023-07-16T02:37:31;21.67;;;14.38;;
47760;SDS011;33524;55.434;38.520;2023-07-16T02:40:03;22.02;;;14.98;;
47760;SDS011;33524;55.434;38.520;2023-07-16T02:42:37;21.67;;;13.98;;
47760;SDS011;33524;55.434;38.520;2023-07-16T02:45:05;16.98;;;13.15;;
47760;SDS011;33524;55.434;38.520;2023-07-16T02:47:35;19.52;;;13.62;;
47760;SDS011;33524;55.434;38.520;2023-07-16T02:50:03;20.48;;;13.48;;
47760;SDS011;33524;55.434;38.520;2023-07-16T02:52:32;16.42;;;12.13;;
47760;SDS011;33524;55.434;38.520;2023-07-16T02:55:03;17.20;;;12.40;;
47760;SDS011;33524;55.434;38.520;2023-07-16T02:57:32;16.60;;;14.03;;
47760;SDS011;33524;55.434;38.520;2023-07-16T03:00:00;14.02;;;12.18;;
47760;SDS011;33524;55.434;38.520;2023-07-16T03:02:30;17.05;;;12.77;;
47760;SDS011;33524;55.434;38.520;2023-07-16T03:04:58;20.37;;;13.38;;
47760;SDS011;33524;55.434;38.520;2023-07-16T03:07:27;15.07;;;13.18;;
47760;SDS011;33524;55.434;38.520;2023-07-16T03:09:55;17.08;;;13.10;;
47760;SDS011;33524;55.434;38.520;2023-07-16T03:12:23;17.17;;;13.05;;
47760;SDS011;33524;55.434;38.520;2023-07-16T03:14:51;16.50;;;12.43;;
47760;SDS011;33524;55.434;38.520;2023-07-16T03:17:21;19.30;;;14.23;;
47760;SDS011;33524;55.434;38.520;2023-07-16T03:19:51;14.80;;;12.32;;
47760;SDS011;33524;55.434;38.520;2023-07-16T03:22:19;17.30;;;12.88;;
47760;SDS011;33524;55.434;38.520;2023-07-16T03:24:47;16.27;;;12.95;;
47760;SDS011;33524;55.434;38.520;2023-07-16T03:27:16;17.37;;;13.23;;
47760;SDS011;33524;55.434;38.520;2023-07-16T03:29:47;13.95;;;12.27;;
47760;SDS011;33524;55.434;38.520;2023-07-16T03:32:16;15.38;;;11.50;;
47760;SDS011;33524;55.434;38.520;2023-07-16T03:34:45;14.70;;;11.63;;
47760;SDS011;33524;55.434;38.520;2023-07-16T03:37:13;14.02;;;11.18;;
47760;SDS011;33524;55.434;38.520;2023-07-16T03:39:41;16.20;;;11.23;;
47760;SDS011;33524;55.434;38.520;2023-07-16T03:42:09;14.00;;;11.27;;
47760;SDS011;33524;55.434;38.520;2023-07-16T03:44:38;15.10;;;11.80;;
47760;SDS011;33524;55.434;38.520;2023-07-16T03:47:06;12.50;;;11.20;;
47760;SDS011;33524;55.434;38.520;2023-07-16T03:49:34;16.12;;;12.70;;
47760;SDS011;33524;55.434;38.520;2023-07-16T03:52:02;14.73;;;11.48;;
47760;SDS011;33524;55.434;38.520;2023-07-16T03:54:31;15.85;;;11.70;;
47760;SDS011;33524;55.434;38.520;2023-07-16T03:57:02;16.25;;;11.48;;
47760;SDS011;33524;55.434;38.520;2023-07-16T03:59:32;17.08;;;11.57;;
47760;SDS011;33524;55.434;38.520;2023-07-16T04:02:03;14.02;;;11.18;;
47760;SDS011;33524;55.434;38.520;2023-07-16T04:04:35;13.55;;;10.90;;
47760;SDS011;33524;55.434;38.520;2023-07-16T04:07:03;15.57;;;12.20;;
47760;SDS011;33524;55.434;38.520;2023-07-16T04:09:36;13.95;;;10.20;;
47760;SDS011;33524;55.434;38.520;2023-07-16T04:12:08;13.93;;;11.45;;
47760;SDS011;33524;55.434;38.520;2023-07-16T04:14:37;15.00;;;10.50;;
47760;SDS011;33524;55.434;38.520;2023-07-16T04:17:05;15.23;;;9.63;;
47760;SDS011;33524;55.434;38.520;2023-07-16T04:19:36;11.02;;;9.27;;
47760;SDS011;33524;55.434;38.520;2023-07-16T04:22:06;10.23;;;9.20;;
47760;SDS011;33524;55.434;38.520;2023-07-16T04:24:33;12.75;;;10.13;;
47760;SDS011;33524;55.434;38.520;2023-07-16T04:27:04;10.05;;;9.05;;
47760;SDS011;33524;55.434;38.520;2023-07-16T04:29:33;12.07;;;8.63;;
47760;SDS011;33524;55.434;38.520;2023-07-16T04:32:01;12.25;;;9.13;;
47760;SDS011;33524;55.434;38.520;2023-07-16T04:34:30;9.52;;;7.05;;
47760;SDS011;33524;55.434;38.520;2023-07-16T04:36:58;11.95;;;9.27;;
47760;SDS011;33524;55.434;38.520;2023-07-16T04:39:26;11.07;;;8.57;;
47760;SDS011;33524;55.434;38.520;2023-07-16T04:41:54;11.38;;;8.95;;
47760;SDS011;33524;55.434;38.520;2023-07-16T04:44:23;10.32;;;7.95;;
47760;SDS011;33524;55.434;38.520;2023-07-16T04:46:54;13.13;;;8.52;;
47760;SDS011;33524;55.434;38.520;2023-07-16T04:49:25;10.63;;;9.02;;
47760;SDS011;33524;55.434;38.520;2023-07-16T04:51:57;10.52;;;8.93;;
47760;SDS011;33524;55.434;38.520;2023-07-16T04:54:25;12.77;;;11.05;;
47760;SDS011;33524;55.434;38.520;2023-07-16T04:56:56;13.50;;;10.30;;
47760;SDS011;33524;55.434;38.520;2023-07-16T04:59:24;12.65;;;10.25;;
47760;SDS011;33524;55.434;38.520;2023-07-16T05:01:55;13.13;;;10.40;;
47760;SDS011;33524;55.434;38.520;2023-07-16T05:04:26;13.25;;;9.18;;
47760;SDS011;33524;55.434;38.520;2023-07-16T05:06:55;12.95;;;9.80;;
47760;SDS011;33524;55.434;38.520;2023-07-16T05:09:26;13.65;;;10.48;;
47760;SDS011;33524;55.434;38.520;2023-07-16T05:11:54;12.05;;;9.30;;
47760;SDS011;33524;55.434;38.520;2023-07-16T05:14:25;11.90;;;9.15;;
47760;SDS011;33524;55.434;38.520;2023-07-16T05:16:55;10.90;;;8.10;;
47760;SDS011;33524;55.434;38.520;2023-07-16T05:19:24;10.23;;;7.68;;
47760;SDS011;33524;55.434;38.520;2023-07-16T05:21:52;13.30;;;9.10;;
47760;SDS011;33524;55.434;38.520;2023-07-16T05:24:20;9.35;;;7.90;;
47760;SDS011;33524;55.434;38.520;2023-07-16T05:26:48;10.65;;;6.97;;
47760;SDS011;33524;55.434;38.520;2023-07-16T05:29:18;9.80;;;7.25;;
47760;SDS011;33524;55.434;38.520;2023-07-16T05:31:46;6.75;;;6.05;;
47760;SDS011;33524;55.434;38.520;2023-07-16T05:34:14;6.55;;;5.80;;
47760;SDS011;33524;55.434;38.520;2023-07-16T05:36:42;7.65;;;6.12;;
47760;SDS011;33524;55.434;38.520;2023-07-16T05:39:16;8.38;;;6.37;;
47760;SDS011;33524;55.434;38.520;2023-07-16T05:41:44;7.57;;;5.75;;
47760;SDS011;33524;55.434;38.520;2023-07-16T05:44:15;10.65;;;6.12;;
47760;SDS011;33524;55.434;38.520;2023-07-16T05:46:44;8.18;;;6.30;;
47760;SDS011;33524;55.434;38.520;2023-07-16T05:49:14;9.68;;;6.12;;
47760;SDS011;33524;55.434;38.520;2023-07-16T05:52:07;7.30;;;5.72;;
47760;SDS011;33524;55.434;38.520;2023-07-16T05:54:49;7.95;;;6.25;;
47760;SDS011;33524;55.434;38.520;2023-07-16T05:57:17;7.82;;;5.85;;
47760;SDS011;33524;55.434;38.520;2023-07-16T05:59:45;8.80;;;6.45;;
47760;SDS011;33524;55.434;38.520;2023-07-16T06:02:14;8.32;;;5.85;;
47760;SDS011;33524;55.434;38.520;2023-07-16T06:04:42;7.57;;;5.55;;
47760;SDS011;33524;55.434;38.520;2023-07-16T06:07:13;7.03;;;5.65;;
47760;SDS011;33524;55.434;38.520;2023-07-16T06:09:44;6.40;;;5.47;;
47760;SDS011;33524;55.434;38.520;2023-07-16T06:12:12;7.93;;;6.35;;
47760;SDS011;33524;55.434;38.520;2023-07-16T06:14:44;7.70;;;5.37;;
47760;SDS011;33524;55.434;38.520;2023-07-16T06:17:13;8.98;;;5.87;;
47760;SDS011;33524;55.434;38.520;2023-07-16T06:19:41;6.37;;;5.45;;
47760;SDS011;33524;55.434;38.520;2023-07-16T06:22:13;5.90;;;4.90;;
47760;SDS011;33524;55.434;38.520;2023-07-16T06:24:44;8.25;;;5.80;;
47760;SDS011;33524;55.434;38.520;2023-07-16T06:27:12;5.75;;;4.70;;
47760;SDS011;33524;55.434;38.520;2023-07-16T06:29:41;7.30;;;5.30;;
47760;SDS011;33524;55.434;38.520;2023-07-16T06:32:13;6.28;;;4.45;;
47760;SDS011;33524;55.434;38.520;2023-07-16T06:34:42;6.22;;;4.68;;
47760;SDS011;33524;55.434;38.520;2023-07-16T06:37:10;7.65;;;5.28;;
47760;SDS011;33524;55.434;38.520;2023-07-16T06:39:38;8.77;;;4.95;;
47760;SDS011;33524;55.434;38.520;2023-07-16T06:42:07;5.43;;;4.78;;
47760;SDS011;33524;55.434;38.520;2023-07-16T06:44:35;5.75;;;5.03;;
47760;SDS011;33524;55.434;38.520;2023-07-16T06:47:12;8.20;;;5.80;;
47760;SDS011;33524;55.434;38.520;2023-07-16T06:49:39;6.57;;;5.25;;
47760;SDS011;33524;55.434;38.520;2023-07-16T06:52:08;7.62;;;5.30;;
47760;SDS011;33524;55.434;38.520;2023-07-16T06:54:47;6.80;;;4.97;;
47760;SDS011;33524;55.434;38.520;2023-07-16T06:57:15;6.65;;;5.78;;
47760;SDS011;33524;55.434;38.520;2023-07-16T06:59:46;7.37;;;5.60;;
47760;SDS011;33524;55.434;38.520;2023-07-16T07:02:18;5.62;;;5.03;;
47760;SDS011;33524;55.434;38.520;2023-07-16T07:04:46;9.00;;;5.97;;
47760;SDS011;33524;55.434;38.520;2023-07-16T07:07:15;8.55;;;4.97;;
47760;SDS011;33524;55.434;38.520;2023-07-16T07:09:43;6.62;;;5.75;;
47760;SDS011;33524;55.434;38.520;2023-07-16T07:12:16;7.78;;;5.55;;
47760;SDS011;33524;55.434;38.520;2023-07-16T07:14:44;7.65;;;5.78;;
47760;SDS011;33524;55.434;38.520;2023-07-16T07:17:12;9.23;;;8.15;;
47760;SDS011;33524;55.434;38.520;2023-07-16T07:19:40;8.95;;;8.05;;
47760;SDS011;33524;55.434;38.520;2023-07-16T07:22:09;7.18;;;6.12;;
47760;SDS011;33524;55.434;38.520;2023-07-16T07:24:37;6.03;;;5.43;;
47760;SDS011;33524;55.434;38.520;2023-07-16T07:27:06;8.02;;;5.45;;
47760;SDS011;33524;55.434;38.520;2023-07-16T07:29:34;7.78;;;5.30;;
47760;SDS011;33524;55.434;38.520;2023-07-16T07:32:03;6.22;;;4.80;;
47760;SDS011;33524;55.434;38.520;2023-07-16T07:34:31;7.80;;;5.18;;
47760;SDS011;33524;55.434;38.520;2023-07-16T07:37:00;5.90;;;5.20;;
47760;SDS011;33524;55.434;38.520;2023-07-16T07:39:28;6.32;;;4.93;;
47760;SDS011;33524;55.434;38.520;2023-07-16T07:41:56;7.43;;;4.62;;
47760;SDS011;33524;55.434;38.520;2023-07-16T07:44:24;6.25;;;4.65;;
47760;SDS011;33524;55.434;38.520;2023-07-16T07:46:52;7.30;;;4.28;;
47760;SDS011;33524;55.434;38.520;2023-07-16T07:49:21;8.25;;;5.12;;
47760;SDS011;33524;55.434;38.520;2023-07-16T07:51:50;6.62;;;3.97;;
47760;SDS011;33524;55.434;38.520;2023-07-16T07:54:18;7.68;;;4.80;;
47760;SDS011;33524;55.434;38.520;2023-07-16T07:56:46;6.05;;;3.87;;
47760;SDS011;33524;55.434;38.520;2023-07-16T07:59:15;4.37;;;3.00;;
47760;SDS011;33524;55.434;38.520;2023-07-16T08:01:43;4.68;;;3.55;;
47760;SDS011;33524;55.434;38.520;2023-07-16T08:04:14;6.28;;;3.42;;
47760;SDS011;33524;55.434;38.520;2023-07-16T08:06:42;4.72;;;3.50;;
47760;SDS011;33524;55.434;38.520;2023-07-16T08:09:11;4.37;;;3.35;;
47760;SDS011;33524;55.434;38.520;2023-07-16T08:11:39;8.55;;;3.30;;
47760;SDS011;33524;55.434;38.520;2023-07-16T08:14:07;5.50;;;4.00;;
47760;SDS011;33524;55.434;38.520;2023-07-16T08:16:38;4.43;;;3.50;;
47760;SDS011;33524;55.434;38.520;2023-07-16T08:19:06;5.40;;;4.10;;
47760;SDS011;33524;55.434;38.520;2023-07-16T08:21:35;3.90;;;3.15;;
47760;SDS011;33524;55.434;38.520;2023-07-16T08:24:05;4.53;;;3.75;;
47760;SDS011;33524;55.434;38.520;2023-07-16T08:26:34;7.07;;;4.18;;
47760;SDS011;33524;55.434;38.520;2023-07-16T08:29:03;10.55;;;3.78;;
47760;SDS011;33524;55.434;38.520;2023-07-16T08:31:31;7.65;;;4.05;;
47760;SDS011;33524;55.434;38.520;2023-07-16T08:33:59;4.53;;;3.15;;
47760;SDS011;33524;55.434;38.520;2023-07-16T08:36:32;4.25;;;3.45;;
47760;SDS011;33524;55.434;38.520;2023-07-16T08:39:03;3.75;;;3.12;;
47760;SDS011;33524;55.434;38.520;2023-07-16T08:41:33;4.37;;;3.35;;
47760;SDS011;33524;55.434;38.520;2023-07-16T08:44:01;4.62;;;3.45;;
47760;SDS011;33524;55.434;38.520;2023-07-16T08:46:30;5.70;;;3.60;;
47760;SDS011;33524;55.434;38.520;2023-07-16T08:48:59;5.80;;;3.78;;
47760;SDS011;33524;55.434;38.520;2023-07-16T08:51:28;4.75;;;3.83;;
47760;SDS011;33524;55.434;38.520;2023-07-16T08:53:58;5.90;;;3.95;;
47760;SDS011;33524;55.434;38.520;2023-07-16T08:56:27;5.00;;;3.45;;
47760;SDS011;33524;55.434;38.520;2023-07-16T08:58:56;6.37;;;4.20;;
47760;SDS011;33524;55.434;38.520;2023-07-16T09:01:27;4.97;;;3.80;;
47760;SDS011;33524;55.434;38.520;2023-07-16T09:03:55;5.68;;;3.92;;
47760;SDS011;33524;55.434;38.520;2023-07-16T09:06:25;5.57;;;4.18;;
47760;SDS011;33524;55.434;38.520;2023-07-16T09:08:54;7.57;;;4.07;;
47760;SDS011;33524;55.434;38.520;2023-07-16T09:11:22;5.37;;;3.72;;
47760;SDS011;33524;55.434;38.520;2023-07-16T09:13:51;5.10;;;4.07;;
47760;SDS011;33524;55.434;38.520;2023-07-16T09:16:22;5.00;;;3.70;;
47760;SDS011;33524;55.434;38.520;2023-07-16T09:18:50;7.70;;;3.70;;
47760;SDS011;33524;55.434;38.520;2023-07-16T09:21:18;5.85;;;3.83;;
47760;SDS011;33524;55.434;38.520;2023-07-16T09:23:47;5.82;;;3.50;;
47760;SDS011;33524;55.434;38.520;2023-07-16T09:26:19;5.95;;;3.72;;
47760;SDS011;33524;55.434;38.520;2023-07-16T09:28:48;4.62;;;3.80;;
47760;SDS011;33524;55.434;38.520;2023-07-16T09:31:16;5.28;;;4.55;;
47760;SDS011;33524;55.434;38.520;2023-07-16T09:33:46;4.80;;;4.30;;
47760;SDS011;33524;55.434;38.520;2023-07-16T09:36:23;6.80;;;4.25;;
47760;SDS011;33524;55.434;38.520;2023-07-16T09:38:55;5.62;;;3.60;;
47760;SDS011;33524;55.434;38.520;2023-07-16T09:41:27;5.25;;;4.35;;
47760;SDS011;33524;55.434;38.520;2023-07-16T09:43:56;5.93;;;3.65;;
47760;SDS011;33524;55.434;38.520;2023-07-16T09:46:24;5.28;;;3.85;;
47760;SDS011;33524;55.434;38.520;2023-07-16T09:48:56;5.78;;;4.22;;
47760;SDS011;33524;55.434;38.520;2023-07-16T09:51:24;5.18;;;4.43;;
47760;SDS011;33524;55.434;38.520;2023-07-16T09:53:53;5.40;;;4.03;;
47760;SDS011;33524;55.434;38.520;2023-07-16T09:56:23;5.53;;;4.93;;
47760;SDS011;33524;55.434;38.520;2023-07-16T09:58:59;6.28;;;4.60;;
47760;SDS011;33524;55.434;38.520;2023-07-16T10:01:31;8.50;;;5.78;;
47760;SDS011;33524;55.434;38.520;2023-07-16T10:04:09;6.37;;;4.93;;
47760;SDS011;33524;55.434;38.520;2023-07-16T10:06:52;8.60;;;5.47;;
47760;SDS011;33524;55.434;38.520;2023-07-16T10:09:38;5.90;;;4.57;;
47760;SDS011;33524;55.434;38.520;2023-07-16T10:12:11;7.93;;;4.15;;
47760;SDS011;33524;55.434;38.520;2023-07-16T10:14:45;5.35;;;4.10;;
47760;SDS011;33524;55.434;38.520;2023-07-16T10:17:23;5.40;;;4.20;;
47760;SDS011;33524;55.434;38.520;2023-07-16T10:19:58;5.07;;;4.03;;
47760;SDS011;33524;55.434;38.520;2023-07-16T10:22:39;5.57;;;3.47;;
47760;SDS011;33524;55.434;38.520;2023-07-16T10:27:50;5.78;;;4.18;;
47760;SDS011;33524;55.434;38.520;2023-07-16T10:30:21;5.90;;;4.10;;
47760;SDS011;33524;55.434;38.520;2023-07-16T10:32:50;4.87;;;3.28;;
47760;SDS011;33524;55.434;38.520;2023-07-16T10:35:24;4.93;;;3.65;;
47760;SDS011;33524;55.434;38.520;2023-07-16T10:37:54;5.40;;;3.92;;
47760;SDS011;33524;55.434;38.520;2023-07-16T10:40:23;4.50;;;4.07;;
47760;SDS011;33524;55.434;38.520;2023-07-16T10:42:52;7.22;;;4.32;;
47760;SDS011;33524;55.434;38.520;2023-07-16T10:45:20;4.97;;;3.80;;
47760;SDS011;33524;55.434;38.520;2023-07-16T10:47:52;7.40;;;4.55;;
47760;SDS011;33524;55.434;38.520;2023-07-16T10:50:22;4.93;;;3.70;;
47760;SDS011;33524;55.434;38.520;2023-07-16T10:52:55;4.82;;;4.12;;
47760;SDS011;33524;55.434;38.520;2023-07-16T10:55:25;6.30;;;3.67;;
47760;SDS011;33524;55.434;38.520;2023-07-16T10:57:55;7.68;;;5.12;;
47760;SDS011;33524;55.434;38.520;2023-07-16T11:00:24;7.78;;;5.07;;
47760;SDS011;33524;55.434;38.520;2023-07-16T11:02:52;7.85;;;4.40;;
47760;SDS011;33524;55.434;38.520;2023-07-16T11:05:21;8.90;;;4.25;;
47760;SDS011;33524;55.434;38.520;2023-07-16T11:07:49;4.78;;;4.03;;
47760;SDS011;33524;55.434;38.520;2023-07-16T11:10:23;4.20;;;3.62;;
47760;SDS011;33524;55.434;38.520;2023-07-16T11:12:54;6.00;;;3.65;;
47760;SDS011;33524;55.434;38.520;2023-07-16T11:15:32;6.40;;;4.20;;
47760;SDS011;33524;55.434;38.520;2023-07-16T11:18:02;5.37;;;3.85;;
47760;SDS011;33524;55.434;38.520;2023-07-16T11:20:30;5.53;;;3.10;;
47760;SDS011;33524;55.434;38.520;2023-07-16T11:22:59;4.60;;;3.17;;
47760;SDS011;33524;55.434;38.520;2023-07-16T11:25:29;4.30;;;3.75;;
47760;SDS011;33524;55.434;38.520;2023-07-16T11:27:57;5.45;;;3.70;;
47760;SDS011;33524;55.434;38.520;2023-07-16T11:30:26;4.65;;;4.18;;
47760;SDS011;33524;55.434;38.520;2023-07-16T11:32:57;5.75;;;4.30;;
47760;SDS011;33524;55.434;38.520;2023-07-16T11:35:29;5.32;;;4.20;;
47760;SDS011;33524;55.434;38.520;2023-07-16T11:37:57;3.92;;;3.37;;
47760;SDS011;33524;55.434;38.520;2023-07-16T11:40:29;4.22;;;3.62;;
47760;SDS011;33524;55.434;38.520;2023-07-16T11:42:57;5.23;;;3.97;;
47760;SDS011;33524;55.434;38.520;2023-07-16T11:45:37;4.05;;;3.62;;
47760;SDS011;33524;55.434;38.520;2023-07-16T11:48:09;8.43;;;4.10;;
47760;SDS011;33524;55.434;38.520;2023-07-16T11:50:38;5.07;;;3.70;;
47760;SDS011;33524;55.434;38.520;2023-07-16T11:53:06;5.28;;;4.30;;
47760;SDS011;33524;55.434;38.520;2023-07-16T11:55:35;6.20;;;4.60;;
47760;SDS011;33524;55.434;38.520;2023-07-16T11:58:04;5.68;;;3.85;;
47760;SDS011;33524;55.434;38.520;2023-07-16T12:00:33;4.60;;;3.72;;
47760;SDS011;33524;55.434;38.520;2023-07-16T12:03:02;4.53;;;3.42;;
47760;SDS011;33524;55.434;38.520;2023-07-16T12:05:30;3.85;;;3.45;;
47760;SDS011;33524;55.434;38.520;2023-07-16T12:08:18;5.70;;;3.42;;
47760;SDS011;33524;55.434;38.520;2023-07-16T12:10:46;5.28;;;3.17;;
47760;SDS011;33524;55.434;38.520;2023-07-16T12:13:15;5.03;;;3.50;;
47760;SDS011;33524;55.434;38.520;2023-07-16T12:15:46;5.18;;;3.87;;
47760;SDS011;33524;55.434;38.520;2023-07-16T12:18:14;4.62;;;3.50;;
47760;SDS011;33524;55.434;38.520;2023-07-16T12:20:43;5.95;;;3.97;;
47760;SDS011;33524;55.434;38.520;2023-07-16T12:23:11;5.28;;;4.20;;
47760;SDS011;33524;55.434;38.520;2023-07-16T12:25:39;4.35;;;3.40;;
47760;SDS011;33524;55.434;38.520;2023-07-16T12:28:08;6.12;;;3.92;;
47760;SDS011;33524;55.434;38.520;2023-07-16T12:30:40;5.47;;;3.62;;
47760;SDS011;33524;55.434;38.520;2023-07-16T12:33:12;5.07;;;3.92;;
47760;SDS011;33524;55.434;38.520;2023-07-16T12:35:40;5.03;;;3.78;;
47760;SDS011;33524;55.434;38.520;2023-07-16T12:38:10;7.12;;;3.90;;
47760;SDS011;33524;55.434;38.520;2023-07-16T12:40:39;5.18;;;3.90;;
47760;SDS011;33524;55.434;38.520;2023-07-16T12:43:09;4.50;;;3.67;;
47760;SDS011;33524;55.434;38.520;2023-07-16T12:45:38;5.85;;;3.65;;
47760;SDS011;33524;55.434;38.520;2023-07-16T12:48:09;4.95;;;3.50;;
47760;SDS011;33524;55.434;38.520;2023-07-16T12:50:37;6.30;;;3.83;;
47760;SDS011;33524;55.434;38.520;2023-07-16T12:53:05;4.82;;;4.03;;
47760;SDS011;33524;55.434;38.520;2023-07-16T12:55:34;4.82;;;3.80;;
47760;SDS011;33524;55.434;38.520;2023-07-16T12:58:02;6.15;;;4.10;;
47760;SDS011;33524;55.434;38.520;2023-07-16T13:00:31;5.30;;;3.90;;
47760;SDS011;33524;55.434;38.520;2023-07-16T13:03:00;6.22;;;4.35;;
47760;SDS011;33524;55.434;38.520;2023-07-16T13:05:32;4.78;;;3.70;;
47760;SDS011;33524;55.434;38.520;2023-07-16T13:08:00;7.03;;;4.32;;
47760;SDS011;33524;55.434;38.520;2023-07-16T13:10:28;8.70;;;3.75;;
47760;SDS011;33524;55.434;38.520;2023-07-16T13:12:56;4.37;;;3.78;;
47760;SDS011;33524;55.434;38.520;2023-07-16T13:15:28;4.47;;;3.75;;
47760;SDS011;33524;55.434;38.520;2023-07-16T13:17:57;6.53;;;4.47;;
47760;SDS011;33524;55.434;38.520;2023-07-16T13:20:26;5.28;;;4.03;;
47760;SDS011;33524;55.434;38.520;2023-07-16T13:22:54;6.03;;;4.05;;
47760;SDS011;33524;55.434;38.520;2023-07-16T13:25:23;4.37;;;3.67;;
47760;SDS011;33524;55.434;38.520;2023-07-16T13:27:51;5.20;;;3.12;;
47760;SDS011;33524;55.434;38.520;2023-07-16T13:30:20;4.87;;;3.40;;
47760;SDS011;33524;55.434;38.520;2023-07-16T13:32:48;4.20;;;3.72;;
47760;SDS011;33524;55.434;38.520;2023-07-16T13:35:17;3.72;;;3.30;;
47760;SDS011;33524;55.434;38.520;2023-07-16T13:37:46;3.83;;;3.42;;
47760;SDS011;33524;55.434;38.520;2023-07-16T13:40:14;4.05;;;3.05;;
47760;SDS011;33524;55.434;38.520;2023-07-16T13:42:43;6.00;;;3.30;;
47760;SDS011;33524;55.434;38.520;2023-07-16T13:45:12;5.00;;;3.60;;
47760;SDS011;33524;55.434;38.520;2023-07-16T13:47:40;6.22;;;3.37;;
47760;SDS011;33524;55.434;38.520;2023-07-16T13:50:08;6.40;;;3.40;;
47760;SDS011;33524;55.434;38.520;2023-07-16T13:52:38;5.62;;;3.03;;
47760;SDS011;33524;55.434;38.520;2023-07-16T13:55:06;5.45;;;3.28;;
47760;SDS011;33524;55.434;38.520;2023-07-16T13:57:35;4.43;;;3.03;;
47760;SDS011;33524;55.434;38.520;2023-07-16T14:00:03;4.45;;;3.40;;
47760;SDS011;33524;55.434;38.520;2023-07-16T14:02:32;5.37;;;3.22;;
47760;SDS011;33524;55.434;38.520;2023-07-16T14:05:01;7.47;;;3.75;;
47760;SDS011;33524;55.434;38.520;2023-07-16T14:07:30;4.30;;;3.37;;
47760;SDS011;33524;55.434;38.520;2023-07-16T14:09:59;4.30;;;3.15;;
47760;SDS011;33524;55.434;38.520;2023-07-16T14:12:29;4.53;;;3.53;;
47760;SDS011;33524;55.434;38.520;2023-07-16T14:14:58;6.32;;;3.20;;
47760;SDS011;33524;55.434;38.520;2023-07-16T14:17:30;5.12;;;3.30;;
47760;SDS011;33524;55.434;38.520;2023-07-16T14:19:59;5.10;;;3.90;;
47760;SDS011;33524;55.434;38.520;2023-07-16T14:22:30;3.75;;;3.25;;
47760;SDS011;33524;55.434;38.520;2023-07-16T14:24:58;5.93;;;4.25;;
47760;SDS011;33524;55.434;38.520;2023-07-16T14:27:27;4.18;;;3.30;;
47760;SDS011;33524;55.434;38.520;2023-07-16T14:29:56;4.57;;;4.00;;
47760;SDS011;33524;55.434;38.520;2023-07-16T14:32:34;5.18;;;4.03;;
47760;SDS011;33524;55.434;38.520;2023-07-16T14:35:02;6.12;;;3.85;;
47760;SDS011;33524;55.434;38.520;2023-07-16T14:37:33;6.20;;;3.42;;
47760;SDS011;33524;55.434;38.520;2023-07-16T14:40:01;5.12;;;3.37;;
47760;SDS011;33524;55.434;38.520;2023-07-16T14:42:33;4.12;;;3.33;;
47760;SDS011;33524;55.434;38.520;2023-07-16T14:45:02;5.57;;;3.30;;
47760;SDS011;33524;55.434;38.520;2023-07-16T14:47:32;4.53;;;2.87;;
47760;SDS011;33524;55.434;38.520;2023-07-16T14:52:33;4.22;;;3.08;;
47760;SDS011;33524;55.434;38.520;2023-07-16T14:55:02;5.12;;;3.20;;